sensor_id;sensor_type;location;lat;lon;timestamp;P1;durP1;ratioP1;P2;durP2;ratioP2
48627;SDS011;34424;52.234;6.500;2024-02-23T00:04:07;1.3;;;0.4;;
48627;SDS011;34424;52.234;6.500;2024-02-23T00:09:07;1.3;;;0.4;;
48627;SDS011;34424;52.234;6.500;2024-02-23T00:14:06;1.2;;;0.5;;
48627;SDS011;34424;52.234;6.500;2024-02-23T00:19:07;0.4;;;0.4;;
48627;SDS011;34424;52.234;6.500;2024-02-23T00:24:06;1.7;;;0.8;;
48627;SDS011;34424;52.234;6.500;2024-02-23T00:29:06;1.5;;;1;;
48627;SDS011;34424;52.234;6.500;2024-02-23T00:34:05;1;;;0.9;;
48627;SDS011;34424;52.234;6.500;2024-02-23T00:39:04;1;;;1;;
48627;SDS011;34424;52.234;6.500;2024-02-23T00:44:04;1.6;;;1.1;;
48627;SDS011;34424;52.234;6.500;2024-02-23T00:49:03;1.5;;;1.2;;
48627;SDS011;34424;52.234;6.500;2024-02-23T00:54:03;2.7;;;1.2;;
48627;SDS011;34424;52.234;6.500;2024-02-23T00:59:02;2.3;;;1.5;;
48627;SDS011;34424;52.234;6.500;2024-02-23T01:04:02;4;;;1.6;;
48627;SDS011;34424;52.234;6.500;2024-02-23T01:09:02;7.5;;;1.7;;
48627;SDS011;34424;52.234;6.500;2024-02-23T01:14:01;3.5;;;1.2;;
48627;SDS011;34424;52.234;6.500;2024-02-23T01:19:01;1.7;;;1.2;;
48627;SDS011;34424;52.234;6.500;2024-02-23T01:24:00;4.1;;;1.8;;
48627;SDS011;34424;52.234;6.500;2024-02-23T01:29:00;4.2;;;2.1;;
48627;SDS011;34424;52.234;6.500;2024-02-23T01:33:59;4.5;;;2.2;;
48627;SDS011;34424;52.234;6.500;2024-02-23T01:38:59;3;;;1.7;;
48627;SDS011;34424;52.234;6.500;2024-02-23T01:43:59;3.1;;;1.5;;
48627;SDS011;34424;52.234;6.500;2024-02-23T01:48:58;2.3;;;0.9;;
48627;SDS011;34424;52.234;6.500;2024-02-23T01:53:58;2;;;1;;
48627;SDS011;34424;52.234;6.500;2024-02-23T01:58:57;2;;;1;;
48627;SDS011;34424;52.234;6.500;2024-02-23T02:03:57;2.5;;;1;;
48627;SDS011;34424;52.234;6.500;2024-02-23T02:08:56;3.4;;;1.4;;
48627;SDS011;34424;52.234;6.500;2024-02-23T02:13:56;3.9;;;2.3;;
48627;SDS011;34424;52.234;6.500;2024-02-23T02:18:56;3.6;;;2.1;;
48627;SDS011;34424;52.234;6.500;2024-02-23T02:23:55;3.9;;;2;;
48627;SDS011;34424;52.234;6.500;2024-02-23T02:28:55;4.7;;;2.1;;
48627;SDS011;34424;52.234;6.500;2024-02-23T02:33:54;3.5;;;2;;
48627;SDS011;34424;52.234;6.500;2024-02-23T02:38:54;6.1;;;2.7;;
48627;SDS011;34424;52.234;6.500;2024-02-23T02:43:54;9.7;;;3.5;;
48627;SDS011;34424;52.234;6.500;2024-02-23T02:48:53;12.2;;;4.9;;
48627;SDS011;34424;52.234;6.500;2024-02-23T02:53:53;7.4;;;4.6;;
48627;SDS011;34424;52.234;6.500;2024-02-23T02:58:52;9.2;;;3.4;;
48627;SDS011;34424;52.234;6.500;2024-02-23T03:03:52;7;;;2.8;;
48627;SDS011;34424;52.234;6.500;2024-02-23T03:08:52;6.6;;;2;;
48627;SDS011;34424;52.234;6.500;2024-02-23T03:13:51;4.5;;;2.1;;
48627;SDS011;34424;52.234;6.500;2024-02-23T03:18:51;4.6;;;1.7;;
48627;SDS011;34424;52.234;6.500;2024-02-23T03:23:50;3.6;;;1.6;;
48627;SDS011;34424;52.234;6.500;2024-02-23T03:28:50;5.7;;;1.9;;
48627;SDS011;34424;52.234;6.500;2024-02-23T03:33:50;4.7;;;2;;
48627;SDS011;34424;52.234;6.500;2024-02-23T03:38:50;6.2;;;1.7;;
48627;SDS011;34424;52.234;6.500;2024-02-23T03:43:49;8;;;2;;
48627;SDS011;34424;52.234;6.500;2024-02-23T03:48:48;5.4;;;1.8;;
48627;SDS011;34424;52.234;6.500;2024-02-23T03:53:48;5.6;;;1.7;;
48627;SDS011;34424;52.234;6.500;2024-02-23T03:58:48;7.1;;;2;;
48627;SDS011;34424;52.234;6.500;2024-02-23T04:03:47;5;;;1.5;;
48627;SDS011;34424;52.234;6.500;2024-02-23T04:08:47;5.2;;;1.7;;
48627;SDS011;34424;52.234;6.500;2024-02-23T04:13:46;3.5;;;1.7;;
48627;SDS011;34424;52.234;6.500;2024-02-23T04:18:46;4.3;;;1.7;;
48627;SDS011;34424;52.234;6.500;2024-02-23T04:23:46;2.6;;;1.4;;
48627;SDS011;34424;52.234;6.500;2024-02-23T04:28:45;5.3;;;1.5;;
48627;SDS011;34424;52.234;6.500;2024-02-23T04:33:45;3.4;;;1.5;;
48627;SDS011;34424;52.234;6.500;2024-02-23T04:38:44;3.4;;;1.5;;
48627;SDS011;34424;52.234;6.500;2024-02-23T04:43:44;2.6;;;1.5;;
48627;SDS011;34424;52.234;6.500;2024-02-23T04:48:44;3.7;;;1.5;;
48627;SDS011;34424;52.234;6.500;2024-02-23T04:53:43;4.7;;;1.9;;
48627;SDS011;34424;52.234;6.500;2024-02-23T04:58:43;4;;;1.9;;
48627;SDS011;34424;52.234;6.500;2024-02-23T05:03:42;5;;;1.6;;
48627;SDS011;34424;52.234;6.500;2024-02-23T05:08:42;4.4;;;1.7;;
48627;SDS011;34424;52.234;6.500;2024-02-23T05:13:42;3.2;;;1.8;;
48627;SDS011;34424;52.234;6.500;2024-02-23T05:18:41;5.6;;;1.8;;
48627;SDS011;34424;52.234;6.500;2024-02-23T05:23:41;7.3;;;1.6;;
48627;SDS011;34424;52.234;6.500;2024-02-23T05:28:41;8.4;;;2.3;;
48627;SDS011;34424;52.234;6.500;2024-02-23T05:33:40;5.1;;;1.9;;
48627;SDS011;34424;52.234;6.500;2024-02-23T05:38:40;6.1;;;2.2;;
48627;SDS011;34424;52.234;6.500;2024-02-23T05:43:39;3.5;;;1.7;;
48627;SDS011;34424;52.234;6.500;2024-02-23T05:48:39;3.5;;;1.7;;
48627;SDS011;34424;52.234;6.500;2024-02-23T05:53:39;7.4;;;1.6;;
48627;SDS011;34424;52.234;6.500;2024-02-23T05:58:38;5.6;;;1.8;;
48627;SDS011;34424;52.234;6.500;2024-02-23T06:03:38;6.1;;;1.8;;
48627;SDS011;34424;52.234;6.500;2024-02-23T06:08:37;3.6;;;2.1;;
48627;SDS011;34424;52.234;6.500;2024-02-23T06:13:37;8.5;;;2;;
48627;SDS011;34424;52.234;6.500;2024-02-23T06:18:37;4.8;;;2.3;;
48627;SDS011;34424;52.234;6.500;2024-02-23T06:23:36;5.3;;;2.2;;
48627;SDS011;34424;52.234;6.500;2024-02-23T06:28:36;6.1;;;2.2;;
48627;SDS011;34424;52.234;6.500;2024-02-23T06:33:35;4.2;;;2.3;;
48627;SDS011;34424;52.234;6.500;2024-02-23T06:38:35;3.8;;;1.7;;
48627;SDS011;34424;52.234;6.500;2024-02-23T06:43:35;4.9;;;1.9;;
48627;SDS011;34424;52.234;6.500;2024-02-23T06:48:34;4.6;;;1.5;;
48627;SDS011;34424;52.234;6.500;2024-02-23T06:53:34;4;;;1.8;;
48627;SDS011;34424;52.234;6.500;2024-02-23T06:58:33;5.8;;;1.6;;
48627;SDS011;34424;52.234;6.500;2024-02-23T07:03:33;5.7;;;1.8;;
48627;SDS011;34424;52.234;6.500;2024-02-23T07:08:33;4.1;;;1.7;;
48627;SDS011;34424;52.234;6.500;2024-02-23T07:13:32;3.3;;;1.5;;
48627;SDS011;34424;52.234;6.500;2024-02-23T07:18:32;5;;;1.5;;
48627;SDS011;34424;52.234;6.500;2024-02-23T07:23:32;5;;;1.8;;
48627;SDS011;34424;52.234;6.500;2024-02-23T07:28:31;3.4;;;1.8;;
48627;SDS011;34424;52.234;6.500;2024-02-23T07:33:31;4.2;;;2;;
48627;SDS011;34424;52.234;6.500;2024-02-23T07:38:30;3.6;;;1.7;;
48627;SDS011;34424;52.234;6.500;2024-02-23T07:43:30;3.4;;;1.6;;
48627;SDS011;34424;52.234;6.500;2024-02-23T07:48:30;4.7;;;1.8;;
48627;SDS011;34424;52.234;6.500;2024-02-23T07:53:29;4.7;;;1.7;;
48627;SDS011;34424;52.234;6.500;2024-02-23T07:58:29;5.4;;;1.8;;
48627;SDS011;34424;52.234;6.500;2024-02-23T08:03:29;3.1;;;1.4;;
48627;SDS011;34424;52.234;6.500;2024-02-23T08:08:28;6.8;;;2.1;;
48627;SDS011;34424;52.234;6.500;2024-02-23T08:13:28;4.5;;;1.8;;
48627;SDS011;34424;52.234;6.500;2024-02-23T08:18:28;6.5;;;2.3;;
48627;SDS011;34424;52.234;6.500;2024-02-23T08:23:27;8.6;;;2.3;;
48627;SDS011;34424;52.234;6.500;2024-02-23T08:28:27;5.6;;;2.2;;
48627;SDS011;34424;52.234;6.500;2024-02-23T08:33:27;8;;;2.3;;
48627;SDS011;34424;52.234;6.500;2024-02-23T08:38:26;6.1;;;2.3;;
48627;SDS011;34424;52.234;6.500;2024-02-23T08:43:26;7.1;;;2.1;;
48627;SDS011;34424;52.234;6.500;2024-02-23T08:48:26;5.2;;;2;;
48627;SDS011;34424;52.234;6.500;2024-02-23T08:53:25;5.5;;;1.8;;
48627;SDS011;34424;52.234;6.500;2024-02-23T08:58:25;4.3;;;1.9;;
48627;SDS011;34424;52.234;6.500;2024-02-23T09:03:25;5.3;;;1.8;;
48627;SDS011;34424;52.234;6.500;2024-02-23T09:08:25;4.1;;;1.8;;
48627;SDS011;34424;52.234;6.500;2024-02-23T09:13:24;5.2;;;1.9;;
48627;SDS011;34424;52.234;6.500;2024-02-23T09:18:24;5;;;1.9;;
48627;SDS011;34424;52.234;6.500;2024-02-23T09:23:24;6;;;1.8;;
48627;SDS011;34424;52.234;6.500;2024-02-23T09:28:24;4.8;;;1.8;;
48627;SDS011;34424;52.234;6.500;2024-02-23T09:33:23;5.5;;;1.9;;
48627;SDS011;34424;52.234;6.500;2024-02-23T09:38:23;4.5;;;1.7;;
48627;SDS011;34424;52.234;6.500;2024-02-23T09:43:23;5.9;;;2;;
48627;SDS011;34424;52.234;6.500;2024-02-23T09:48:23;4.2;;;1.5;;
48627;SDS011;34424;52.234;6.500;2024-02-23T09:53:23;5.6;;;2;;
48627;SDS011;34424;52.234;6.500;2024-02-23T09:58:22;7.8;;;2;;
48627;SDS011;34424;52.234;6.500;2024-02-23T10:03:22;6.9;;;1.8;;
48627;SDS011;34424;52.234;6.500;2024-02-23T10:08:21;3.3;;;1.7;;
48627;SDS011;34424;52.234;6.500;2024-02-23T10:13:22;5.4;;;1.9;;
48627;SDS011;34424;52.234;6.500;2024-02-23T10:18:21;6.2;;;2.1;;
48627;SDS011;34424;52.234;6.500;2024-02-23T10:23:22;7.3;;;1.9;;
48627;SDS011;34424;52.234;6.500;2024-02-23T10:28:20;4.8;;;1.8;;
48627;SDS011;34424;52.234;6.500;2024-02-23T10:33:22;6.2;;;2;;
48627;SDS011;34424;52.234;6.500;2024-02-23T10:38:20;5;;;1.8;;
48627;SDS011;34424;52.234;6.500;2024-02-23T10:43:19;7.2;;;2.3;;
48627;SDS011;34424;52.234;6.500;2024-02-23T10:48:19;5.3;;;1.8;;
48627;SDS011;34424;52.234;6.500;2024-02-23T10:53:19;3.8;;;1.9;;
48627;SDS011;34424;52.234;6.500;2024-02-23T10:58:18;5.5;;;2;;
48627;SDS011;34424;52.234;6.500;2024-02-23T11:03:18;6.5;;;2.1;;
48627;SDS011;34424;52.234;6.500;2024-02-23T11:08:20;6.4;;;2;;
48627;SDS011;34424;52.234;6.500;2024-02-23T11:13:17;3.2;;;1.7;;
48627;SDS011;34424;52.234;6.500;2024-02-23T11:18:26;5.1;;;1.5;;
48627;SDS011;34424;52.234;6.500;2024-02-23T11:23:17;5.8;;;1.9;;
48627;SDS011;34424;52.234;6.500;2024-02-23T11:28:24;5;;;1.8;;
48627;SDS011;34424;52.234;6.500;2024-02-23T11:33:16;6.3;;;1.8;;
48627;SDS011;34424;52.234;6.500;2024-02-23T11:38:16;5.7;;;1.7;;
48627;SDS011;34424;52.234;6.500;2024-02-23T11:43:15;7.5;;;2.4;;
48627;SDS011;34424;52.234;6.500;2024-02-23T11:48:15;2.9;;;1.6;;
48627;SDS011;34424;52.234;6.500;2024-02-23T11:53:15;4.4;;;1.6;;
48627;SDS011;34424;52.234;6.500;2024-02-23T11:58:14;5.2;;;2.5;;
48627;SDS011;34424;52.234;6.500;2024-02-23T12:03:14;3;;;1.1;;
48627;SDS011;34424;52.234;6.500;2024-02-23T12:08:14;3.6;;;1.6;;
48627;SDS011;34424;52.234;6.500;2024-02-23T12:13:13;3.1;;;1.4;;
48627;SDS011;34424;52.234;6.500;2024-02-23T12:18:14;4.5;;;1.6;;
48627;SDS011;34424;52.234;6.500;2024-02-23T12:23:13;2.7;;;1.5;;
48627;SDS011;34424;52.234;6.500;2024-02-23T12:28:12;3.5;;;1.4;;
48627;SDS011;34424;52.234;6.500;2024-02-23T12:33:12;3.1;;;1.4;;
48627;SDS011;34424;52.234;6.500;2024-02-23T12:38:12;5.4;;;1.8;;
48627;SDS011;34424;52.234;6.500;2024-02-23T12:43:11;3.4;;;1.5;;
48627;SDS011;34424;52.234;6.500;2024-02-23T12:48:11;3.4;;;1.6;;
48627;SDS011;34424;52.234;6.500;2024-02-23T12:53:11;5.3;;;2.1;;
48627;SDS011;34424;52.234;6.500;2024-02-23T12:58:11;3.7;;;1.4;;
48627;SDS011;34424;52.234;6.500;2024-02-23T13:03:10;3.8;;;1.7;;
48627;SDS011;34424;52.234;6.500;2024-02-23T13:08:10;4.3;;;1.7;;
48627;SDS011;34424;52.234;6.500;2024-02-23T13:13:10;3.2;;;1.5;;
48627;SDS011;34424;52.234;6.500;2024-02-23T13:18:10;3;;;1.5;;
48627;SDS011;34424;52.234;6.500;2024-02-23T13:23:09;3.6;;;1.6;;
48627;SDS011;34424;52.234;6.500;2024-02-23T13:28:09;5.8;;;1.9;;
48627;SDS011;34424;52.234;6.500;2024-02-23T13:33:10;3.7;;;1.5;;
48627;SDS011;34424;52.234;6.500;2024-02-23T13:38:09;3.5;;;1.6;;
48627;SDS011;34424;52.234;6.500;2024-02-23T13:43:08;3.6;;;1.6;;
48627;SDS011;34424;52.234;6.500;2024-02-23T13:48:08;3;;;1.6;;
48627;SDS011;34424;52.234;6.500;2024-02-23T13:53:08;10.2;;;2.4;;
48627;SDS011;34424;52.234;6.500;2024-02-23T13:58:08;3.8;;;1.7;;
48627;SDS011;34424;52.234;6.500;2024-02-23T14:03:08;5.1;;;1.9;;
48627;SDS011;34424;52.234;6.500;2024-02-23T14:08:07;4.3;;;1.8;;
48627;SDS011;34424;52.234;6.500;2024-02-23T14:13:07;3.4;;;1.7;;
48627;SDS011;34424;52.234;6.500;2024-02-23T14:18:07;3.7;;;2;;
48627;SDS011;34424;52.234;6.500;2024-02-23T14:23:07;4.1;;;2;;
48627;SDS011;34424;52.234;6.500;2024-02-23T14:28:07;4.4;;;1.9;;
48627;SDS011;34424;52.234;6.500;2024-02-23T14:33:06;2.7;;;1.7;;
48627;SDS011;34424;52.234;6.500;2024-02-23T14:38:06;4.9;;;1.9;;
48627;SDS011;34424;52.234;6.500;2024-02-23T14:43:06;4.1;;;1.7;;
48627;SDS011;34424;52.234;6.500;2024-02-23T14:48:06;3.5;;;1.8;;
48627;SDS011;34424;52.234;6.500;2024-02-23T14:53:05;4;;;1.7;;
48627;SDS011;34424;52.234;6.500;2024-02-23T14:58:05;3.9;;;1.8;;
48627;SDS011;34424;52.234;6.500;2024-02-23T15:03:05;5.2;;;1.9;;
48627;SDS011;34424;52.234;6.500;2024-02-23T15:08:05;3.5;;;1.7;;
48627;SDS011;34424;52.234;6.500;2024-02-23T15:13:05;3.5;;;1.7;;
48627;SDS011;34424;52.234;6.500;2024-02-23T15:18:05;4.4;;;1.8;;
48627;SDS011;34424;52.234;6.500;2024-02-23T15:23:04;3.6;;;1.7;;
48627;SDS011;34424;52.234;6.500;2024-02-23T15:28:04;4;;;1.8;;
48627;SDS011;34424;52.234;6.500;2024-02-23T15:33:04;3.6;;;1.7;;
48627;SDS011;34424;52.234;6.500;2024-02-23T15:38:04;5.2;;;1.9;;
48627;SDS011;34424;52.234;6.500;2024-02-23T15:43:03;4;;;2;;
48627;SDS011;34424;52.234;6.500;2024-02-23T15:48:03;2.6;;;1.7;;
48627;SDS011;34424;52.234;6.500;2024-02-23T15:53:03;2.5;;;1.7;;
48627;SDS011;34424;52.234;6.500;2024-02-23T15:58:02;4.3;;;2;;
48627;SDS011;34424;52.234;6.500;2024-02-23T16:03:02;3.8;;;2.3;;
48627;SDS011;34424;52.234;6.500;2024-02-23T16:08:02;4;;;2.2;;
48627;SDS011;34424;52.234;6.500;2024-02-23T16:13:02;4;;;2.2;;
48627;SDS011;34424;52.234;6.500;2024-02-23T16:18:01;6;;;3.5;;
48627;SDS011;34424;52.234;6.500;2024-02-23T16:23:01;7.1;;;3.2;;
48627;SDS011;34424;52.234;6.500;2024-02-23T16:28:01;4.4;;;3.3;;
48627;SDS011;34424;52.234;6.500;2024-02-23T16:33:00;8;;;4.4;;
48627;SDS011;34424;52.234;6.500;2024-02-23T16:38:00;7.1;;;5.3;;
48627;SDS011;34424;52.234;6.500;2024-02-23T16:43:00;7.9;;;4.1;;
48627;SDS011;34424;52.234;6.500;2024-02-23T16:47:59;13.3;;;9.1;;
48627;SDS011;34424;52.234;6.500;2024-02-23T16:52:59;4;;;3.1;;
48627;SDS011;34424;52.234;6.500;2024-02-23T16:57:59;7.8;;;3.1;;
48627;SDS011;34424;52.234;6.500;2024-02-23T17:02:59;6.3;;;4.2;;
48627;SDS011;34424;52.234;6.500;2024-02-23T17:07:58;6.1;;;3.6;;
48627;SDS011;34424;52.234;6.500;2024-02-23T17:12:58;4.3;;;2.4;;
48627;SDS011;34424;52.234;6.500;2024-02-23T17:17:58;5.7;;;2.3;;
48627;SDS011;34424;52.234;6.500;2024-02-23T17:22:57;4;;;2.1;;
48627;SDS011;34424;52.234;6.500;2024-02-23T17:27:57;5;;;2.7;;
48627;SDS011;34424;52.234;6.500;2024-02-23T17:32:57;5.6;;;2.6;;
48627;SDS011;34424;52.234;6.500;2024-02-23T17:37:57;6.9;;;3;;
48627;SDS011;34424;52.234;6.500;2024-02-23T17:42:56;4.1;;;2.7;;
48627;SDS011;34424;52.234;6.500;2024-02-23T17:47:56;5.9;;;2.6;;
48627;SDS011;34424;52.234;6.500;2024-02-23T17:52:56;6.6;;;2.8;;
48627;SDS011;34424;52.234;6.500;2024-02-23T17:57:55;4.3;;;1.8;;
48627;SDS011;34424;52.234;6.500;2024-02-23T18:02:55;4.6;;;2.2;;
48627;SDS011;34424;52.234;6.500;2024-02-23T18:07:55;2.7;;;1.7;;
48627;SDS011;34424;52.234;6.500;2024-02-23T18:12:55;4.1;;;2;;
48627;SDS011;34424;52.234;6.500;2024-02-23T18:17:54;6.4;;;1.7;;
48627;SDS011;34424;52.234;6.500;2024-02-23T18:22:54;5.2;;;2.2;;
48627;SDS011;34424;52.234;6.500;2024-02-23T18:27:54;4.1;;;2.1;;
48627;SDS011;34424;52.234;6.500;2024-02-23T18:32:53;4.5;;;2.4;;
48627;SDS011;34424;52.234;6.500;2024-02-23T18:37:53;3.3;;;1.9;;
48627;SDS011;34424;52.234;6.500;2024-02-23T18:42:53;4.3;;;1.7;;
48627;SDS011;34424;52.234;6.500;2024-02-23T18:47:52;4;;;2.5;;
48627;SDS011;34424;52.234;6.500;2024-02-23T18:52:52;3.9;;;2.1;;
48627;SDS011;34424;52.234;6.500;2024-02-23T18:57:52;3.3;;;1.8;;
48627;SDS011;34424;52.234;6.500;2024-02-23T19:02:52;2.7;;;1.5;;
48627;SDS011;34424;52.234;6.500;2024-02-23T19:07:51;8.4;;;2.1;;
48627;SDS011;34424;52.234;6.500;2024-02-23T19:12:51;3.7;;;1.8;;
48627;SDS011;34424;52.234;6.500;2024-02-23T19:17:51;4.8;;;1.9;;
48627;SDS011;34424;52.234;6.500;2024-02-23T19:22:50;3.5;;;1.8;;
48627;SDS011;34424;52.234;6.500;2024-02-23T19:27:50;2.4;;;1.6;;
48627;SDS011;34424;52.234;6.500;2024-02-23T19:32:50;4.1;;;1.9;;
48627;SDS011;34424;52.234;6.500;2024-02-23T19:37:49;4.1;;;2;;
48627;SDS011;34424;52.234;6.500;2024-02-23T19:42:49;4.9;;;2.2;;
48627;SDS011;34424;52.234;6.500;2024-02-23T19:47:49;6.6;;;2.9;;
48627;SDS011;34424;52.234;6.500;2024-02-23T19:52:48;3.6;;;2.2;;
48627;SDS011;34424;52.234;6.500;2024-02-23T19:57:48;4.4;;;2.7;;
48627;SDS011;34424;52.234;6.500;2024-02-23T20:02:48;2.6;;;1.9;;
48627;SDS011;34424;52.234;6.500;2024-02-23T20:07:48;5.6;;;2.4;;
48627;SDS011;34424;52.234;6.500;2024-02-23T20:12:47;4.9;;;2.8;;
48627;SDS011;34424;52.234;6.500;2024-02-23T20:17:47;3.2;;;2.4;;
48627;SDS011;34424;52.234;6.500;2024-02-23T20:22:47;3.4;;;2.4;;
48627;SDS011;34424;52.234;6.500;2024-02-23T20:27:46;4.6;;;3.7;;
48627;SDS011;34424;52.234;6.500;2024-02-23T20:32:46;5.1;;;3.3;;
48627;SDS011;34424;52.234;6.500;2024-02-23T20:37:46;6.1;;;3.8;;
48627;SDS011;34424;52.234;6.500;2024-02-23T20:42:45;6.1;;;3.8;;
48627;SDS011;34424;52.234;6.500;2024-02-23T20:47:45;5.2;;;3.2;;
48627;SDS011;34424;52.234;6.500;2024-02-23T20:52:45;4.8;;;2.5;;
48627;SDS011;34424;52.234;6.500;2024-02-23T20:57:44;3.8;;;2.9;;
48627;SDS011;34424;52.234;6.500;2024-02-23T21:02:44;4;;;3.3;;
48627;SDS011;34424;52.234;6.500;2024-02-23T21:07:44;4.8;;;2.6;;
48627;SDS011;34424;52.234;6.500;2024-02-23T21:12:43;3.8;;;2.6;;
48627;SDS011;34424;52.234;6.500;2024-02-23T21:17:43;4.5;;;2.9;;
48627;SDS011;34424;52.234;6.500;2024-02-23T21:22:43;9;;;4.6;;
48627;SDS011;34424;52.234;6.500;2024-02-23T21:27:42;3.6;;;1.7;;
48627;SDS011;34424;52.234;6.500;2024-02-23T21:32:42;2.9;;;1.8;;
48627;SDS011;34424;52.234;6.500;2024-02-23T21:37:42;4.9;;;2.1;;
48627;SDS011;34424;52.234;6.500;2024-02-23T21:42:41;3.4;;;2.2;;
48627;SDS011;34424;52.234;6.500;2024-02-23T21:47:41;5.3;;;3;;
48627;SDS011;34424;52.234;6.500;2024-02-23T21:52:41;4.1;;;2.7;;
48627;SDS011;34424;52.234;6.500;2024-02-23T21:57:40;3.9;;;2.2;;
48627;SDS011;34424;52.234;6.500;2024-02-23T22:02:40;2.8;;;2.2;;
48627;SDS011;34424;52.234;6.500;2024-02-23T22:07:40;5.2;;;2.6;;
48627;SDS011;34424;52.234;6.500;2024-02-23T22:12:40;3;;;1.9;;
48627;SDS011;34424;52.234;6.500;2024-02-23T22:17:39;2.8;;;1.5;;
48627;SDS011;34424;52.234;6.500;2024-02-23T22:22:39;3;;;1.7;;
48627;SDS011;34424;52.234;6.500;2024-02-23T22:27:39;2.9;;;1.4;;
48627;SDS011;34424;52.234;6.500;2024-02-23T22:32:38;1.5;;;1.2;;
48627;SDS011;34424;52.234;6.500;2024-02-23T22:37:38;2.3;;;1.7;;
48627;SDS011;34424;52.234;6.500;2024-02-23T22:42:38;2.8;;;1.2;;
48627;SDS011;34424;52.234;6.500;2024-02-23T22:47:37;1.9;;;1.3;;
48627;SDS011;34424;52.234;6.500;2024-02-23T22:52:37;2.1;;;1.4;;
48627;SDS011;34424;52.234;6.500;2024-02-23T22:57:37;2.6;;;1.5;;
48627;SDS011;34424;52.234;6.500;2024-02-23T23:02:36;2.8;;;1.9;;
48627;SDS011;34424;52.234;6.500;2024-02-23T23:07:36;3.2;;;1.6;;
48627;SDS011;34424;52.234;6.500;2024-02-23T23:12:36;2.4;;;1.4;;
48627;SDS011;34424;52.234;6.500;2024-02-23T23:17:35;4.1;;;1.5;;
48627;SDS011;34424;52.234;6.500;2024-02-23T23:22:35;2.2;;;1.5;;
48627;SDS011;34424;52.234;6.500;2024-02-23T23:27:35;3.1;;;1.6;;
48627;SDS011;34424;52.234;6.500;2024-02-23T23:32:35;2.2;;;1.5;;
48627;SDS011;34424;52.234;6.500;2024-02-23T23:37:34;2.1;;;1.2;;
48627;SDS011;34424;52.234;6.500;2024-02-23T23:42:34;2.1;;;1.5;;
48627;SDS011;34424;52.234;6.500;2024-02-23T23:47:33;3.1;;;1.4;;
48627;SDS011;34424;52.234;6.500;2024-02-23T23:52:33;2.4;;;1.3;;
48627;SDS011;34424;52.234;6.500;2024-02-23T23:57:33;1.9;;;1.4;;
